Time;durP1;ratioP1;P1;durP2;ratioP2;P2;SDS_P1;SDS_P2;PMS_P1;PMS_P2;Temp;Humidity;BMP_temperature;BMP_pressure;BME280_temperature;BME280_humidity;BME280_pressure;Samples;Min_cycle;Max_cycle;Signal;HPM_P1;HPM_P2
2022/08/15 00:02:04;;;;;;;12.52;8.23;;;20.70;52.90;;;21.43;88.22;99199.03;5044388;27;115138;-74
2022/08/15 00:04:34;;;;;;;11.32;8.20;;;20.60;58.40;;;21.38;88.24;99191.94;5043519;27;129858;-72
2022/08/15 00:07:04;;;;;;;11.68;8.02;;;20.50;62.10;;;21.36;88.61;99188.75;5043667;27;129676;-74
2022/08/15 00:09:33;;;;;;;12.07;8.48;;;20.60;66.40;;;21.34;88.72;99193.88;5044172;27;119199;-73
2022/08/15 00:12:01;;;;;;;10.13;8.25;;;20.50;67.70;;;21.31;88.87;99187.16;5046121;27;115100;-73
2022/08/15 00:14:35;;;;;;;12.60;8.10;;;20.50;66.80;;;21.29;89.17;99189.53;5044028;27;130054;-73
2022/08/15 00:17:09;;;;;;;10.65;8.48;;;20.50;63.70;;;21.28;89.33;99187.94;5043701;27;129347;-72
2022/08/15 00:19:41;;;;;;;10.82;7.55;;;20.50;66.70;;;21.27;89.08;99193.84;5045822;27;117701;-72
2022/08/15 00:22:17;;;;;;;10.68;8.57;;;20.50;70.60;;;21.26;89.22;99195.06;5046330;27;113845;-73
2022/08/15 00:24:46;;;;;;;;;;;20.50;72.00;;;21.19;89.76;99196.63;5043832;27;130356;-74
2022/08/15 00:27:15;;;;;;;10.70;8.15;;;20.40;74.10;;;21.20;89.38;99191.88;5059413;27;129583;-73
2022/08/15 00:29:45;;;;;;;10.80;8.32;;;20.40;77.00;;;21.16;89.59;99186.38;5042537;27;118867;-73
2022/08/15 00:32:19;;;;;;;11.38;8.50;;;20.40;78.80;;;21.14;89.90;99199.75;5043971;27;116229;-74
2022/08/15 00:34:50;;;;;;;10.38;8.30;;;20.30;79.70;;;21.15;89.71;99184.78;5028607;27;128786;-74
2022/08/15 00:37:19;;;;;;;14.85;7.93;;;20.30;85.00;;;21.15;89.82;99195.03;5028134;27;129261;-74
2022/08/15 00:39:48;;;;;;;11.95;8.55;;;20.30;84.60;;;21.10;89.86;99187.94;5043614;27;118923;-73
2022/08/15 00:42:23;;;;;;;10.50;8.00;;;20.30;82.30;;;21.07;90.24;99188.72;5045800;27;115305;-73
2022/08/15 00:44:54;;;;;;;12.20;9.32;;;20.30;90.00;;;21.07;89.70;99188.72;5042965;27;130459;-74
2022/08/15 00:47:24;;;;;;;12.07;8.27;;;20.30;82.60;;;21.06;90.03;99189.09;5045166;27;129152;-74
2022/08/15 00:49:53;;;;;;;13.50;8.43;;;20.30;80.40;;;21.02;90.13;99180.81;5044497;27;118744;-73
2022/08/15 00:52:26;;;;;;;12.65;8.23;;;20.30;83.00;;;21.02;90.14;99186.34;5046788;27;114770;-72
2022/08/15 00:55:01;;;;;;;10.98;8.48;;;20.30;84.30;;;21.00;89.93;99183.16;5044935;27;130022;-73
2022/08/15 00:57:33;;;;;;;12.55;9.15;;;20.30;83.30;;;20.97;90.28;99186.69;5044782;27;129130;-72
2022/08/15 01:00:12;;;;;;;10.48;8.63;;;20.20;81.60;;;20.97;90.17;99189.44;5045264;27;117534;-72
2022/08/15 01:02:41;;;;;;;10.68;8.35;;;20.20;79.70;;;20.93;90.46;99196.94;5045291;27;115156;-75
2022/08/15 01:05:12;;;;;;;11.23;8.60;;;20.30;79.10;;;20.91;90.57;99191.00;5041417;27;130503;-72
2022/08/15 01:07:43;;;;;;;12.43;8.73;;;20.30;78.10;;;20.92;90.44;99189.84;5042984;27;131393;-72
2022/08/15 01:10:12;;;;;;;13.38;8.32;;;20.30;79.10;;;20.92;90.32;99187.09;5043146;27;119287;-72
2022/08/15 01:12:42;;;;;;;11.23;8.43;;;20.20;85.40;;;20.91;90.38;99188.25;5043870;27;115267;-74
2022/08/15 01:15:16;;;;;;;10.93;8.55;;;20.10;92.40;;;20.88;90.61;99186.28;5058733;27;130808;-73
2022/08/15 01:17:46;;;;;;;11.05;8.25;;;20.10;92.40;;;20.87;90.71;99191.00;5044802;27;129477;-73
2022/08/15 01:20:20;;;;;;;11.27;8.30;;;20.00;94.00;;;20.85;90.99;99195.31;5042911;27;118911;-72
2022/08/15 01:23:06;;;;;;;12.10;9.15;;;20.00;94.00;;;20.82;90.85;99194.94;5042896;27;116228;-72
2022/08/15 01:25:42;;;;;;;10.95;8.50;;;19.90;93.90;;;20.81;91.03;99198.06;5042404;27;129668;-74
2022/08/15 01:28:13;;;;;;;;;;;19.90;95.30;;;20.72;91.69;99184.63;5041612;27;130293;-76
2022/08/15 01:30:49;;;;;;;12.80;8.73;;;19.90;95.60;;;20.73;91.52;99183.47;5045056;27;118559;-74
2022/08/15 01:33:19;;;;;;;12.65;8.85;;;19.90;96.50;;;20.71;91.82;99180.31;5041376;27;116491;-75
2022/08/15 01:35:49;;;;;;;12.45;9.10;;;19.90;95.50;;;20.71;91.86;99188.59;5044610;27;129735;-74
2022/08/15 01:38:27;;;;;;;14.43;9.05;;;19.90;97.40;;;20.68;92.02;99189.34;5042538;27;129469;-75
2022/08/15 01:41:08;;;;;;;10.85;8.77;;;20.00;94.00;;;20.69;91.68;99190.13;5044603;27;119069;-74
2022/08/15 01:43:45;;;;;;;12.65;8.82;;;19.90;93.90;;;20.68;91.97;99189.34;5027918;27;114190;-75
2022/08/15 01:46:15;;;;;;;11.15;8.48;;;19.90;99.50;;;20.64;91.99;99185.75;5043620;27;129348;-75
2022/08/15 01:48:51;;;;;;;11.48;9.20;;;19.90;94.00;;;20.63;92.11;99187.72;5026416;27;128217;-75
2022/08/15 01:51:20;;;;;;;12.23;9.55;;;19.80;98.90;;;20.60;92.13;99179.44;5044348;27;118386;-75
2022/08/15 01:53:55;;;;;;;12.75;9.13;;;19.80;98.60;;;20.56;92.57;99187.69;5041438;27;115497;-74
2022/08/15 01:56:33;;;;;;;13.68;9.73;;;19.90;97.30;;;20.55;92.33;99179.81;5040732;27;130043;-74
2022/08/15 01:59:05;;;;;;;11.18;8.85;;;19.80;96.40;;;20.53;92.88;99180.19;5041098;27;129844;-76
2022/08/15 02:01:43;;;;;;;13.77;9.43;;;19.90;98.60;;;20.52;93.14;99180.56;5040964;27;118922;-75
2022/08/15 02:04:13;;;;;;;11.02;8.30;;;19.80;98.30;;;20.51;93.11;99176.25;5044679;27;114259;-75
2022/08/15 02:06:44;;;;;;;11.60;8.77;;;19.80;99.10;;;20.53;92.77;99182.16;5044007;27;129992;-73
2022/08/15 02:09:21;;;;;;;11.80;9.60;;;19.80;99.90;;;20.50;93.29;99182.94;5040665;27;130367;-72
2022/08/15 02:11:51;;;;;;;11.77;9.20;;;19.80;99.90;;;20.48;93.24;99175.84;5041973;27;119140;-73
2022/08/15 02:14:21;;;;;;;12.02;9.43;;;19.70;99.90;;;20.43;93.71;99176.22;5041073;27;116059;-73
2022/08/15 02:16:50;;;;;;;12.30;9.13;;;19.70;99.90;;;20.40;93.88;99173.44;5043622;27;128656;-74
2022/08/15 02:19:18;;;;;;;15.18;9.65;;;19.70;99.90;;;20.37;94.08;99175.00;5040705;27;129803;-73
2022/08/15 02:21:49;;;;;;;13.68;10.10;;;19.60;99.90;;;20.33;94.62;99178.91;5041955;27;119198;-73
2022/08/15 02:24:20;;;;;;;11.18;9.32;;;19.60;99.90;;;20.22;95.59;99173.34;5040581;27;115745;-73
2022/08/15 02:26:55;;;;;;;13.95;9.63;;;19.50;99.90;;;20.22;95.66;99181.59;5043506;27;130287;-73
2022/08/15 02:29:29;;;;;;;12.93;9.70;;;19.40;99.90;;;20.17;96.18;99176.47;5040491;27;129427;-73
2022/08/15 02:32:03;;;;;;;13.05;9.90;;;19.40;99.90;;;20.12;96.62;99172.09;5027053;27;118483;-74
2022/08/15 02:34:32;;;;;;;14.48;10.68;;;19.30;99.90;;;20.06;97.20;99176.38;5041964;27;115019;-74
2022/08/15 02:37:02;;;;;;;14.30;10.43;;;19.30;99.90;;;19.98;98.21;99170.03;5043186;27;129650;-74
2022/08/15 02:39:30;;;;;;;13.50;10.40;;;19.30;99.90;;;19.93;98.88;99181.44;5040062;27;129723;-74
2022/08/15 02:42:00;;;;;;;12.35;10.77;;;19.20;99.90;;;19.89;99.25;99177.84;5043528;27;118751;-74
2022/08/15 02:44:30;;;;;;;12.57;10.35;;;19.20;99.90;;;19.86;99.40;99189.63;5041691;27;115767;-72
2022/08/15 02:47:03;;;;;;;14.07;10.38;;;19.20;99.90;;;19.88;99.26;99181.75;5042276;27;129834;-74
2022/08/15 02:49:33;;;;;;;14.05;10.77;;;19.10;99.90;;;19.88;99.30;99182.56;5041082;27;129383;-73
2022/08/15 02:52:02;;;;;;;15.00;11.48;;;19.10;99.90;;;19.84;99.81;99180.97;5026459;27;119238;-76
2022/08/15 02:54:31;;;;;;;13.43;10.90;;;19.10;99.90;;;19.82;100.00;99183.28;5040326;27;115874;-74
2022/08/15 02:57:01;;;;;;;13.98;10.77;;;19.00;99.90;;;19.80;100.00;99186.41;5040083;27;130444;-74
2022/08/15 02:59:31;;;;;;;16.08;11.63;;;19.00;99.90;;;19.77;100.00;99180.91;5039235;27;129286;-73
2022/08/15 03:01:59;;;;;;;17.00;11.88;;;19.00;99.90;;;19.72;100.00;99188.28;5043210;27;118633;-75
2022/08/15 03:04:30;;;;;;;13.85;11.55;;;19.00;99.90;;;19.67;100.00;99182.38;5025828;27;115447;-73
2022/08/15 03:07:02;;;;;;;13.38;11.27;;;19.00;99.90;;;19.65;100.00;99185.50;5042629;27;130064;-73
2022/08/15 03:09:31;;;;;;;14.80;11.10;;;19.00;99.90;;;19.62;100.00;99186.25;5039509;27;129568;-73
2022/08/15 03:12:06;;;;;;;16.73;11.98;;;18.90;99.90;;;19.60;100.00;99185.03;5026181;27;117627;-72
2022/08/15 03:14:39;;;;;;;14.95;11.20;;;18.90;99.90;;;19.61;100.00;99184.66;5039840;27;116108;-73
2022/08/15 03:17:09;;;;;;;13.38;11.60;;;19.00;99.90;;;19.62;100.00;99186.25;5042618;27;129734;-74
2022/08/15 03:19:43;;;;;;;14.52;11.25;;;19.00;99.90;;;19.67;100.00;99187.88;5039425;27;129367;-74
2022/08/15 03:22:15;;;;;;;17.13;11.93;;;19.00;99.90;;;19.68;100.00;99184.75;5043297;27;118387;-73
2022/08/15 03:24:46;;;;;;;16.80;11.57;;;19.00;99.90;;;19.70;100.00;99185.13;5039866;27;115770;-74
2022/08/15 03:27:16;;;;;;;13.77;11.88;;;19.00;99.90;;;19.73;100.00;99181.63;5042672;27;130395;-73
2022/08/15 03:29:45;;;;;;;13.15;11.52;;;19.00;99.90;;;19.74;100.00;99183.22;5042306;27;128621;-72
2022/08/15 03:32:14;;;;;;;15.45;12.30;;;19.00;99.90;;;19.82;100.00;99195.09;5059738;27;119304;-72
2022/08/15 03:34:43;;;;;;;18.77;11.88;;;19.10;99.90;;;19.87;100.00;99191.22;5039781;27;115781;-73
2022/08/15 03:37:11;;;;;;;16.83;12.38;;;19.10;99.90;;;19.88;100.00;99187.28;5059563;27;129702;-73
2022/08/15 03:39:40;;;;;;;14.85;11.57;;;19.10;99.90;;;19.93;100.00;99184.97;5055983;27;129890;-72
2022/08/15 03:42:11;;;;;;;13.20;10.70;;;19.20;99.90;;;20.01;100.00;99185.81;5042997;27;118663;-72
2022/08/15 03:44:41;;;;;;;16.05;12.27;;;19.20;99.90;;;20.16;100.00;99186.66;5042764;27;115215;-73
2022/08/15 03:47:10;;;;;;;13.38;10.98;;;19.30;99.90;;;20.25;100.00;99183.59;5042446;27;131348;-72
2022/08/15 03:49:40;;;;;;;13.88;11.25;;;19.40;99.90;;;20.32;100.00;99183.66;5055969;27;129743;-72
2022/08/15 03:52:10;;;;;;;14.15;12.00;;;19.40;99.90;;;20.41;99.62;99180.53;5059482;27;118543;-72
2022/08/15 03:54:41;;;;;;;14.50;11.80;;;19.50;99.90;;;20.43;99.29;99178.97;5042746;27;115630;-73
2022/08/15 03:57:10;;;;;;;16.60;12.98;;;19.50;99.90;;;20.46;98.98;99180.94;5055696;27;130074;-73
2022/08/15 03:59:38;;;;;;;13.68;11.50;;;19.50;99.90;;;20.51;98.62;99179.78;5059052;27;129767;-74
2022/08/15 04:02:09;;;;;;;14.90;11.07;;;19.60;99.90;;;20.59;97.90;99180.63;5039338;27;118823;-73
2022/08/15 04:04:38;;;;;;;15.65;11.85;;;19.60;99.90;;;20.72;97.57;99179.13;5042637;27;115569;-73
2022/08/15 04:07:07;;;;;;;13.25;10.95;;;19.70;99.90;;;20.86;96.40;99183.13;5038584;27;129754;-74
2022/08/15 04:09:43;;;;;;;13.52;10.57;;;19.80;99.90;;;21.00;95.58;99183.16;5041893;27;128768;-73
2022/08/15 04:12:12;;;;;;;13.98;11.40;;;19.90;99.90;;;21.17;94.26;99193.44;5042679;27;119566;-73
2022/08/15 04:14:41;;;;;;;14.65;10.45;;;20.10;99.90;;;21.39;93.24;99187.97;5047555;27;117395;-73
2022/08/15 04:17:15;;;;;;;13.85;11.55;;;20.20;99.90;;;21.41;92.26;99184.81;5059159;27;130056;-72
2022/08/15 04:19:45;;;;;;;14.68;11.07;;;20.30;99.90;;;21.32;92.24;99182.47;5045600;27;128731;-73
2022/08/15 04:22:13;;;;;;;13.57;11.15;;;20.20;99.90;;;21.32;92.20;99182.47;5044110;27;118946;-72
2022/08/15 04:24:42;;;;;;;16.17;11.75;;;20.30;99.90;;;21.47;91.03;99189.56;5060106;27;115928;-73
2022/08/15 04:27:10;;;;;;;13.68;10.60;;;20.40;99.90;;;21.62;90.62;99186.84;5043236;27;130293;-72
2022/08/15 04:29:39;;;;;;;14.35;10.93;;;20.50;99.90;;;21.75;90.04;99188.03;5059378;27;129419;-72
2022/08/15 04:32:08;;;;;;;15.05;10.48;;;20.60;99.90;;;21.78;89.24;99181.72;5059538;27;120022;-73
2022/08/15 04:34:39;;;;;;;16.27;10.82;;;20.60;99.90;;;21.79;88.74;99183.28;5043766;27;116568;-73
2022/08/15 04:37:07;;;;;;;13.15;10.18;;;20.70;98.70;;;21.81;89.15;99186.44;5058614;27;129868;-71
2022/08/15 04:39:35;;;;;;;12.63;10.40;;;20.70;97.00;;;21.98;88.64;99189.59;5061723;27;129225;-73
2022/08/15 04:42:08;;;;;;;17.23;10.77;;;20.80;97.20;;;22.00;88.03;99181.69;5058977;27;119177;-73
2022/08/15 04:44:39;;;;;;;15.52;11.07;;;20.90;94.40;;;22.08;87.45;99180.53;5062825;27;115659;-73
2022/08/15 04:47:08;;;;;;;13.02;10.38;;;20.90;94.40;;;22.16;86.65;99179.31;5043692;27;130216;-71
2022/08/15 04:49:39;;;;;;;12.32;10.30;;;21.00;94.40;;;22.29;86.12;99176.13;5041647;27;129718;-72
2022/08/15 04:52:11;;;;;;;14.23;10.60;;;21.10;90.20;;;22.24;85.73;99180.88;5041953;27;118880;-78
2022/08/15 04:54:41;;;;;;;12.73;10.23;;;21.10;81.00;;;22.50;85.34;99187.16;5042069;27;116204;-73
2022/08/15 04:57:19;;;;;;;13.65;10.68;;;21.30;82.00;;;22.71;83.65;99182.75;5027993;27;128978;-78
2022/08/15 04:59:51;;;;;;;12.25;10.77;;;21.40;66.10;;;22.75;82.93;99186.25;5044730;27;129249;-73
2022/08/15 05:02:26;;;;;;;14.93;10.80;;;21.40;65.00;;;22.71;82.84;99188.28;5045238;27;117856;-73
2022/08/15 05:04:56;;;;;;;15.23;10.10;;;21.40;61.50;;;22.68;83.47;99187.09;5041896;27;116183;-72
2022/08/15 05:07:25;;;;;;;15.05;10.38;;;21.40;62.20;;;22.80;83.29;99177.56;5041392;27;129952;-73
2022/08/15 05:09:53;;;;;;;11.88;9.65;;;21.50;61.60;;;23.00;83.00;99188.13;5048754;27;129574;-71
2022/08/15 05:12:21;;;;;;;12.68;10.25;;;21.60;65.20;;;23.13;81.70;99178.22;5044878;27;118485;-72
2022/08/15 05:14:50;;;;;;;14.52;10.18;;;21.70;54.10;;;23.03;81.19;99184.53;5041083;27;116414;-73
2022/08/15 05:17:24;;;;;;;12.20;10.20;;;21.60;51.10;;;23.06;81.19;99178.22;5044155;27;129488;-76
2022/08/15 05:19:52;;;;;;;14.63;10.32;;;21.50;47.60;;;23.08;81.16;99187.72;5041093;27;129915;-75
2022/08/15 05:22:23;;;;;;;11.80;10.05;;;21.70;48.00;;;23.18;80.97;99180.53;5022899;27;118498;-73
2022/08/15 05:24:52;;;;;;;17.23;10.35;;;21.70;43.30;;;23.18;80.79;99180.53;5050768;27;115953;-74
2022/08/15 05:27:21;;;;;;;12.95;10.02;;;21.80;41.90;;;23.15;80.94;99178.56;5040801;27;130380;-79
2022/08/15 05:29:51;;;;;;;13.23;9.55;;;21.80;38.90;;;23.28;80.12;99178.88;5044061;27;129184;-74
2022/08/15 05:32:20;;;;;;;12.77;10.45;;;21.90;39.00;;;23.44;79.10;99167.34;5027789;27;118581;-74
2022/08/15 05:34:50;;;;;;;17.00;10.63;;;21.90;31.00;;;23.32;79.50;99179.66;5027875;27;114718;-73
2022/08/15 05:37:19;;;;;;;14.90;10.73;;;22.00;27.80;;;23.32;79.85;99174.13;5040715;27;130473;-74
2022/08/15 05:39:51;;;;;;;13.18;10.30;;;22.10;26.50;;;23.47;79.45;99180.38;5044105;27;128457;-74
2022/08/15 05:42:31;;;;;;;12.43;9.57;;;22.20;24.60;;;23.42;78.75;99178.00;5042474;27;119453;-74
2022/08/15 05:45:16;;;;;;;12.35;9.80;;;22.10;22.50;;;23.43;78.72;99185.91;5041370;27;115244;-76
2022/08/15 05:48:00;;;;;;;16.48;10.20;;;22.10;23.60;;;23.67;79.07;99189.69;5026707;27;128894;-74
2022/08/15 05:50:35;;;;;;;12.70;10.07;;;22.30;28.30;;;23.97;77.36;99185.50;5040729;27;129468;-72
2022/08/15 05:53:26;;;;;;;16.05;10.27;;;22.40;17.00;;;24.10;77.36;99193.31;5027547;27;119050;-73
2022/08/15 05:56:04;;;;;;;12.27;9.90;;;22.50;19.40;;;24.10;76.36;99193.31;5044476;27;115100;-78
2022/08/15 05:58:43;;;;;;;14.35;10.45;;;22.40;11.40;;;23.92;76.51;99194.28;5043756;27;129745;-74
2022/08/15 06:01:24;;;;;;;12.82;10.68;;;22.20;18.30;;;23.82;77.17;99184.03;5040528;27;130044;-79
2022/08/15 06:03:59;;;;;;;16.05;10.32;;;22.20;21.50;;;23.88;77.58;99190.72;5044138;27;118843;-74
2022/08/15 06:06:33;;;;;;;13.07;9.70;;;22.20;21.80;;;23.88;77.60;99187.19;5035578;27;116061;-72
2022/08/15 06:09:14;;;;;;;14.88;10.13;;;22.30;23.10;;;23.91;77.32;99192.69;5021814;28;129939;-75
2022/08/15 06:11:47;;;;;;;12.77;9.15;;;22.30;21.50;;;23.99;77.35;99188.66;5020613;28;129565;-76
2022/08/15 06:14:30;;;;;;;11.73;9.32;;;22.40;19.30;;;24.32;75.58;99189.09;5037560;27;119235;-71
2022/08/15 06:17:05;;;;;;;12.88;9.73;;;22.80;6.60;;;24.86;73.87;99184.97;5040784;27;114747;-74
2022/08/15 06:19:39;;;;;;;13.20;9.27;;;23.30;1.00;;;25.51;72.70;99181.28;5019886;28;129818;-75
2022/08/15 06:22:48;;;;;;;12.18;9.38;;;23.80;1.00;;;25.72;69.82;99186.50;5040164;27;128969;-75
2022/08/15 06:25:28;;;;;;;15.52;9.45;;;24.00;1.00;;;25.82;69.22;99179.97;5030219;27;118327;-78
2022/08/15 06:28:17;;;;;;;14.43;9.27;;;23.90;1.00;;;25.35;70.76;99185.47;5023471;28;115534;-73
2022/08/15 06:30:58;;;;;;;15.25;9.70;;;23.60;1.00;;;25.72;69.67;99180.94;5006747;28;129389;-74
2022/08/15 06:33:37;;;;;;;12.77;9.07;;;23.80;1.00;;;25.69;69.36;99184.56;5022518;28;128532;-73
2022/08/15 06:36:17;;;;;;;12.45;9.57;;;23.70;1.00;;;25.70;69.84;99177.81;5006774;28;117809;-77
2022/08/15 06:38:55;;;;;;;12.80;9.60;;;23.80;1.00;;;25.90;67.88;99180.66;5038611;27;114999;-76
2022/08/15 06:41:32;;;;;;;12.73;10.20;;;23.90;1.00;;;25.75;67.97;99179.31;5036745;27;130683;-73
2022/08/15 06:44:15;;;;;;;13.38;10.73;;;23.90;1.00;;;25.55;70.10;99168.91;5006149;28;128259;-74
2022/08/15 06:47:03;;;;;;;14.80;10.40;;;23.80;1.00;;;25.53;69.58;99170.56;5038764;27;119032;-76
2022/08/15 06:49:36;;;;;;;13.07;10.05;;;23.70;1.00;;;25.72;69.07;99178.16;5023496;28;115543;-73
2022/08/15 06:52:08;;;;;;;11.82;8.65;;;23.90;1.00;;;25.58;68.53;99181.19;5019499;28;129761;-76
2022/08/15 06:54:40;;;;;;;13.98;9.15;;;23.90;1.00;;;26.08;67.75;99169.22;5006432;28;129564;-75
2022/08/15 06:57:21;;;;;;;12.02;8.75;;;24.30;1.00;;;26.59;65.92;99169.06;5040475;27;118140;-74
2022/08/15 07:00:10;;;;;;;16.88;8.98;;;24.80;1.00;;;26.39;65.20;99169.06;5040775;27;114992;-76
2022/08/15 07:03:05;;;;;;;11.40;7.97;;;24.60;1.00;;;26.92;64.81;99173.97;5019645;28;130079;-75
2022/08/15 07:05:47;;;;;;;10.88;8.68;;;25.00;1.00;;;27.12;62.31;99183.06;5039611;27;129431;-74
2022/08/15 07:08:26;;;;;;;11.40;8.95;;;25.30;1.00;;;27.18;62.93;99169.44;5020439;28;119408;-74
2022/08/15 07:11:01;;;;;;;10.63;8.48;;;25.40;1.00;;;27.31;61.36;99177.88;5040588;27;115115;-80
2022/08/15 07:14:19;;;;;;;10.57;8.38;;;25.40;1.00;;;27.11;61.13;99175.91;5036675;27;130265;-74
2022/08/15 07:16:57;;;;;;;11.10;8.75;;;25.30;1.00;;;26.46;62.65;99180.03;5019598;28;129454;-75
2022/08/15 07:19:26;;;;;;;9.70;8.27;;;25.00;1.00;;;26.75;62.28;99175.91;5023121;28;118436;-73
2022/08/15 07:22:04;;;;;;;9.13;7.85;;;25.10;1.00;;;27.23;61.13;99166.88;5036832;27;115897;-76
2022/08/15 07:24:34;;;;;;;11.40;7.88;;;25.40;1.00;;;27.57;59.51;99174.09;5022464;28;129426;-73
2022/08/15 07:27:12;;;;;;;10.77;8.07;;;25.70;1.00;;;27.26;59.08;99171.59;5020968;28;129582;-75
2022/08/15 07:29:48;;;;;;;12.77;8.65;;;25.50;1.00;;;27.21;60.21;99158.19;5036663;27;119096;-74
2022/08/15 07:32:46;;;;;;;11.05;8.25;;;25.50;1.00;;;27.12;61.12;99160.00;5036516;27;115642;-75
2022/08/15 07:35:25;;;;;;;10.95;7.90;;;25.50;1.00;;;26.86;61.42;99160.53;5036208;27;129891;-74
2022/08/15 07:37:59;;;;;;;12.98;9.27;;;25.30;1.00;;;27.26;61.57;99174.38;5019454;28;129898;-75
2022/08/15 07:40:34;;;;;;;10.77;7.70;;;25.60;1.00;;;27.58;58.79;99175.66;5022671;28;118554;-75
2022/08/15 07:43:25;;;;;;;8.90;7.53;;;25.90;1.00;;;27.61;57.35;99180.38;5039843;27;114151;-75
2022/08/15 07:46:08;;;;;;;10.02;7.47;;;25.80;1.00;;;28.23;57.45;99179.59;5041575;27;129789;-73
2022/08/15 07:48:39;;;;;;;11.07;7.47;;;26.40;1.00;;;28.24;55.88;99180.41;5042719;27;130281;-75
2022/08/15 07:51:23;;;;;;;9.32;7.60;;;26.40;1.00;;;28.43;56.58;99181.47;5046325;27;118639;-73
2022/08/15 07:54:22;;;;;;;8.85;7.50;;;26.50;1.00;;;28.61;55.15;99181.78;5043281;27;115307;-76
2022/08/15 07:56:57;;;;;;;11.73;7.78;;;26.60;1.00;;;28.33;55.59;99178.53;5045912;27;129426;-78
2022/08/15 07:59:30;;;;;;;9.13;7.18;;;26.20;1.00;;;28.35;55.46;99174.53;5042480;27;129548;-75
2022/08/15 08:02:20;;;;;;;;;;;26.30;1.00;;;28.25;55.55;99182.75;5046705;27;118160;-72
2022/08/15 08:04:50;;;;;;;9.67;7.60;;;26.30;1.00;;;28.11;55.87;99177.53;5043448;27;115020;-72
2022/08/15 08:07:28;;;;;;;12.38;7.93;;;26.30;1.00;;;28.33;56.63;99175.75;5045996;27;129649;-73
2022/08/15 08:10:04;;;;;;;9.52;7.32;;;26.40;1.00;;;28.44;55.87;99172.66;5043585;27;129300;-71
2022/08/15 08:12:41;;;;;;;;;;;26.40;1.00;;;28.26;55.84;99178.72;5047346;27;118234;-71
2022/08/15 08:15:19;;;;;;;10.82;7.03;;;26.30;1.00;;;28.38;55.10;99179.22;5045927;27;114854;-73
2022/08/15 08:17:59;;;;;;;8.30;6.10;;;26.30;1.00;;;28.38;52.86;99179.22;5042100;27;130022;-71
2022/08/15 08:20:39;;;;;;;10.40;6.43;;;26.40;1.00;;;28.29;53.51;99177.84;5028297;27;128087;-71
2022/08/15 08:23:16;;;;;;;8.02;6.50;;;26.30;1.00;;;28.53;52.32;99169.19;5028968;27;117856;-76
2022/08/15 08:26:02;;;;;;;9.95;6.20;;;26.50;1.00;;;28.43;51.69;99176.66;5046030;27;114544;-73
2022/08/15 08:28:40;;;;;;;9.93;6.60;;;26.40;1.00;;;28.65;51.20;99165.69;5041864;27;129967;-73
2022/08/15 08:31:18;;;;;;;7.38;5.97;;;26.60;1.00;;;28.93;50.38;99177.25;5045141;27;130417;-73
2022/08/15 08:34:05;;;;;;;9.25;6.25;;;26.80;1.00;;;29.19;49.28;99178.06;5042383;27;118792;-71
2022/08/15 08:36:46;;;;;;;8.45;5.90;;;27.00;1.00;;;28.82;49.39;99168.41;5043721;27;115059;-73
2022/08/15 08:39:33;;;;;;;9.98;5.97;;;26.80;1.00;;;29.16;49.44;99172.59;5043021;27;130421;-71
2022/08/15 08:42:19;;;;;;;8.65;6.03;;;27.00;1.00;;;29.64;48.95;99170.66;5043267;27;130916;-72
2022/08/15 08:45:06;;;;;;;11.00;6.40;;;27.40;1.00;;;29.81;47.89;99173.34;5043293;27;118913;-73
2022/08/15 08:48:06;;;;;;;7.63;5.63;;;27.60;1.00;;;29.80;46.47;99171.78;5045545;27;115207;-72
2022/08/15 08:50:43;;;;;;;9.82;5.63;;;27.80;1.00;;;30.21;45.52;99164.38;5042912;27;129849;-75
2022/08/15 08:53:29;;;;;;;9.88;5.47;;;28.00;1.00;;;29.79;46.62;99170.19;5043056;27;129519;-71
2022/08/15 08:56:06;;;;;;;9.68;5.82;;;27.90;1.00;;;29.74;46.51;99165.94;5045232;27;118457;-75
2022/08/15 08:58:41;;;;;;;8.70;6.00;;;27.80;1.00;;;30.07;45.57;99158.03;5041494;27;115109;-72
2022/08/15 09:01:15;;;;;;;8.48;5.50;;;28.00;1.00;;;30.54;45.94;99164.00;5024808;27;128798;-76
2022/08/15 09:03:47;;;;;;;6.50;5.37;;;28.50;1.00;;;31.11;43.80;99163.88;5023525;27;129588;-74
2022/08/15 09:06:24;;;;;;;6.78;5.38;;;28.90;1.00;;;31.39;43.22;99161.19;5025353;27;117980;-74
2022/08/15 09:09:04;;;;;;;8.90;5.90;;;29.10;1.00;;;31.25;43.34;99162.53;5024069;27;116299;-73
2022/08/15 09:11:42;;;;;;;11.98;6.45;;;28.90;1.00;;;30.75;45.90;99154.81;5007580;28;129857;-71
2022/08/15 09:14:21;;;;;;;7.97;5.78;;;28.60;1.00;;;29.75;46.76;99153.53;5030117;27;130046;-73
2022/08/15 09:16:53;;;;;;;9.45;6.15;;;27.80;1.00;;;29.39;48.61;99155.50;5043503;27;117683;-74
2022/08/15 09:19:28;;;;;;;7.13;5.85;;;27.60;1.00;;;29.23;49.35;99144.44;5045163;27;114588;-74
2022/08/15 09:21:57;;;;;;;12.73;6.85;;;27.40;1.00;;;29.13;50.00;99146.31;5044489;27;128795;-72
2022/08/15 09:24:27;;;;;;;9.40;6.65;;;27.60;1.00;;;29.12;49.64;99150.31;5042905;27;129594;-72
2022/08/15 09:27:04;;;;;;;7.43;6.18;;;27.60;1.00;;;28.69;49.77;99144.03;5038832;27;118880;-71
2022/08/15 09:29:36;;;;;;;8.98;5.68;;;27.40;1.00;;;29.14;50.46;99144.28;5045027;27;115160;-71
2022/08/15 09:32:38;;;;;;;8.48;6.07;;;27.60;1.00;;;29.40;49.71;99145.09;5042056;27;129869;-72
2022/08/15 09:35:34;;;;;;;8.18;5.95;;;27.90;1.00;;;29.58;48.78;99148.09;5042497;27;130357;-72
2022/08/15 09:38:31;;;;;;;7.25;5.32;;;28.10;1.00;;;29.46;47.51;99148.09;5042702;27;118710;-70
2022/08/15 09:41:48;;;;;;;8.63;6.18;;;28.10;1.00;;;29.57;49.61;99145.72;5043204;27;115205;-76
2022/08/15 09:44:47;;;;;;;8.38;5.65;;;28.10;1.00;;;30.02;47.20;99144.63;5036451;27;129575;-79
2022/08/15 09:48:26;;;;;;;7.90;5.97;;;28.30;1.00;;;30.39;47.55;99139.34;5045013;27;130771;-76
2022/08/15 09:51:21;;;;;;;10.38;6.53;;;28.40;1.00;;;29.64;48.04;99142.72;5044484;27;118226;-74
2022/08/15 09:54:20;;;;;;;12.30;6.60;;;28.00;1.00;;;29.69;48.46;99150.53;5044963;27;114408;-76
2022/08/15 09:56:52;;;;;;;6.95;5.60;;;28.00;1.00;;;29.62;47.42;99145.16;5032354;27;130415;-75
2022/08/15 09:59:24;;;;;;;7.68;5.85;;;27.90;1.00;;;30.38;46.85;99143.34;5042412;27;130485;-74
2022/08/15 10:01:59;;;;;;;8.55;6.28;;;28.60;1.00;;;31.07;46.13;99133.22;5042063;27;118912;-73
2022/08/15 10:05:01;;;;;;;11.93;5.97;;;29.00;1.00;;;31.08;44.36;99140.34;5042627;27;115853;-73
2022/08/15 10:07:50;;;;;;;7.85;5.55;;;28.90;1.00;;;31.04;45.99;99128.53;5044964;27;129883;-75
2022/08/15 10:10:24;;;;;;;7.20;6.05;;;29.00;1.00;;;31.36;46.16;99129.25;5041663;27;129763;-74
2022/08/15 10:13:32;;;;;;;10.05;5.15;;;29.10;1.00;;;31.45;43.45;99120.84;5042287;27;119671;-76
2022/08/15 10:16:01;;;;;;;11.27;5.22;;;29.30;1.00;;;31.66;42.79;99135.25;5044632;27;114397;-72
2022/08/15 10:19:11;;;;;;;9.55;5.43;;;29.50;1.00;;;32.00;43.45;99131.38;5040517;27;130234;-76
2022/08/15 10:21:44;;;;;;;7.60;5.10;;;29.80;1.00;;;32.42;40.92;99132.75;5027804;27;130683;-72
2022/08/15 10:24:28;;;;;;;9.52;5.32;;;30.10;1.00;;;31.93;40.75;99130.88;5044396;27;117875;-77
2022/08/15 10:27:24;;;;;;;10.70;5.38;;;29.80;1.00;;;31.68;41.29;99135.53;5042504;27;115639;-73
2022/08/15 10:30:16;;;;;;;6.28;4.60;;;29.80;1.00;;;31.67;40.80;99125.59;5040688;27;129862;-74
2022/08/15 10:32:45;;;;;;;7.18;5.10;;;29.70;1.00;;;31.56;41.26;99142.09;5041857;27;129433;-71
2022/08/15 10:35:21;;;;;;;7.28;4.88;;;29.60;1.00;;;31.31;40.94;99121.44;5042073;27;118792;-73
2022/08/15 10:37:54;;;;;;;7.72;5.43;;;29.30;1.00;;;31.99;41.19;99121.41;5042201;27;115115;-72
2022/08/15 10:40:54;;;;;;;8.27;4.68;;;29.80;1.00;;;31.21;42.10;99129.03;5041620;27;129861;-73
2022/08/15 10:44:10;;;;;;;9.40;5.70;;;29.40;1.00;;;30.97;43.21;99126.00;5041390;27;129476;-75
2022/08/15 10:46:54;;;;;;;9.20;5.85;;;29.20;1.00;;;30.87;44.11;99121.56;4965641;28;118006;-73